createdAt,value
2022-08-24T00:00:50.593Z,71.16
2022-08-24T00:01:50.807Z,71.06
2022-08-24T00:02:51.187Z,70.86
2022-08-24T00:03:55.241Z,71.56
2022-08-24T00:04:51.321Z,72.06
2022-08-24T00:05:51.565Z,71.56
2022-08-24T00:06:51.662Z,72.36
2022-08-24T00:07:51.841Z,72.66
2022-08-24T00:08:52.087Z,72.06
2022-08-24T00:09:52.168Z,72.46
2022-08-24T00:10:52.354Z,72.56
2022-08-24T00:11:52.511Z,72.16
2022-08-24T00:12:52.725Z,72.36
2022-08-24T00:13:52.963Z,72.19
2022-08-24T00:14:53.058Z,72.89
2022-08-24T00:15:53.234Z,72.50
2022-08-24T00:16:53.523Z,72.69
2022-08-24T00:17:53.653Z,72.69
2022-08-24T00:18:53.773Z,72.39
2022-08-24T00:19:53.963Z,72.69
2022-08-24T00:20:54.103Z,72.19
2022-08-24T00:21:54.276Z,72.80
2022-08-24T00:22:54.456Z,72.39
2022-08-24T00:23:54.664Z,72.69
2022-08-24T00:24:54.789Z,73.39
2022-08-24T00:25:55.031Z,72.80
2022-08-24T00:26:55.163Z,72.69
2022-08-24T00:27:55.313Z,72.39
2022-08-24T00:28:55.504Z,72.80
2022-08-24T00:29:55.709Z,72.89
2022-08-24T00:30:55.855Z,73.00
2022-08-24T00:31:56.019Z,73.10
2022-08-24T00:32:56.273Z,72.80
2022-08-24T00:33:56.362Z,72.30
2022-08-24T00:34:58.649Z,72.69
2022-08-24T00:35:56.674Z,73.50
2022-08-24T00:36:56.885Z,73.39
2022-08-24T00:37:57.205Z,72.89
2022-08-24T00:38:57.204Z,73.00
2022-08-24T00:39:57.456Z,73.53
2022-08-24T00:40:57.605Z,73.23
2022-08-24T00:41:57.684Z,73.43
2022-08-24T00:42:57.865Z,73.53
2022-08-24T00:43:58.026Z,72.53
2022-08-24T00:44:58.216Z,72.73
2022-08-24T00:45:58.455Z,73.43
2022-08-24T00:46:58.534Z,73.23
2022-08-24T00:47:58.961Z,72.93
2022-08-24T00:48:58.889Z,73.73
2022-08-24T00:49:59.075Z,73.23
2022-08-24T00:50:59.324Z,73.53
2022-08-24T00:51:59.451Z,73.73
2022-08-24T00:52:59.615Z,73.43
2022-08-24T00:53:59.832Z,73.23
2022-08-24T00:54:59.987Z,73.83
2022-08-24T00:56:00.135Z,73.73
2022-08-24T00:57:00.297Z,73.73
2022-08-24T00:58:00.561Z,74.13
2022-08-24T00:59:00.632Z,73.33
2022-08-24T01:00:00.825Z,74.13
2022-08-24T01:01:01.162Z,74.03
2022-08-24T01:02:05.251Z,74.33
2022-08-24T01:03:02.366Z,74.57
2022-08-24T01:04:01.621Z,74.47
2022-08-24T01:05:01.677Z,74.17
2022-08-24T01:06:01.874Z,74.17
2022-08-24T01:07:02.108Z,73.47
2022-08-24T01:08:02.539Z,74.17
2022-08-24T01:09:02.376Z,74.57
2022-08-24T01:10:02.556Z,74.87
2022-08-24T01:11:02.735Z,75.07
2022-08-24T01:12:02.896Z,74.87
2022-08-24T01:13:03.075Z,74.07
2022-08-24T01:14:03.290Z,74.47
2022-08-24T01:15:03.449Z,74.97
2022-08-24T01:16:03.613Z,74.97
2022-08-24T01:17:03.772Z,75.07
2022-08-24T01:18:04.146Z,75.27
2022-08-24T01:19:04.105Z,75.57
2022-08-24T01:20:04.297Z,75.31
2022-08-24T01:21:04.535Z,75.27
2022-08-24T01:22:04.637Z,75.41
2022-08-24T01:23:04.849Z,74.80
2022-08-24T01:24:05.082Z,75.01
2022-08-24T01:25:05.159Z,74.80
2022-08-24T01:26:05.380Z,74.71
2022-08-24T01:27:05.582Z,74.80
2022-08-24T01:28:05.687Z,75.01
2022-08-24T01:29:05.949Z,74.80
2022-08-24T01:30:06.062Z,75.21
2022-08-24T01:31:06.255Z,74.90
2022-08-24T01:32:06.458Z,74.40
2022-08-24T01:33:06.632Z,74.51
2022-08-24T01:34:06.748Z,74.20
2022-08-24T01:35:06.915Z,75.21
2022-08-24T01:36:07.075Z,76.01
2022-08-24T01:37:07.247Z,74.60
2022-08-24T01:38:07.459Z,75.51
2022-08-24T01:39:07.701Z,74.90
2022-08-24T01:40:07.855Z,74.01
2022-08-24T01:41:07.997Z,74.30
2022-08-24T01:42:08.246Z,73.80
2022-08-24T01:43:08.366Z,74.60
2022-08-24T01:44:08.489Z,74.71
2022-08-24T01:45:08.705Z,74.80
2022-08-24T01:46:08.889Z,74.71
2022-08-24T01:47:09.012Z,74.71
2022-08-24T01:48:09.209Z,74.80
2022-08-24T01:49:09.425Z,75.41
2022-08-24T01:50:09.559Z,75.21
2022-08-24T01:51:09.718Z,75.14
2022-08-24T01:52:09.991Z,74.84
2022-08-24T01:53:10.127Z,74.74
2022-08-24T01:54:10.297Z,74.84
2022-08-24T01:55:10.549Z,74.94
2022-08-24T01:56:10.640Z,74.04
2022-08-24T01:57:10.800Z,74.04
2022-08-24T01:58:10.999Z,74.54
2022-08-24T01:59:11.158Z,73.84
2022-08-24T02:00:11.420Z,74.24
2022-08-24T02:01:11.504Z,73.64
2022-08-24T02:02:11.707Z,75.04
2022-08-24T02:03:11.959Z,75.24
2022-08-24T02:04:12.010Z,75.14
2022-08-24T02:05:13.190Z,75.34
2022-08-24T02:06:12.381Z,75.34
2022-08-24T02:07:12.530Z,75.24
2022-08-24T02:08:12.757Z,75.14
2022-08-24T02:09:12.998Z,75.34
2022-08-24T02:10:13.124Z,75.34
2022-08-24T02:11:13.280Z,74.84
2022-08-24T02:12:13.444Z,75.95
2022-08-24T02:13:13.619Z,76.25
2022-08-24T02:14:14.554Z,76.68
2022-08-24T02:15:13.979Z,77.09
2022-08-24T02:16:14.193Z,75.58
2022-08-24T02:17:14.512Z,76.48
2022-08-24T02:18:15.287Z,76.89
2022-08-24T02:19:14.660Z,76.68
2022-08-24T02:20:14.820Z,77.09
2022-08-24T02:21:15.050Z,76.58
2022-08-24T02:22:15.152Z,77.19
2022-08-24T02:23:15.330Z,77.39
2022-08-24T02:24:15.574Z,77.28
2022-08-24T02:25:15.660Z,76.89
2022-08-24T02:26:15.832Z,77.39
2022-08-24T02:27:16.063Z,77.79
2022-08-24T02:28:16.198Z,77.59
2022-08-24T02:29:16.341Z,76.68
2022-08-24T02:30:16.570Z,76.89
2022-08-24T02:31:16.791Z,76.48
2022-08-24T02:32:16.874Z,76.48
2022-08-24T02:33:17.080Z,76.18
2022-08-24T02:34:17.254Z,75.68
2022-08-24T02:35:17.374Z,77.39
2022-08-24T02:36:26.173Z,76.68
2022-08-24T02:37:18.805Z,77.79
2022-08-24T02:38:17.900Z,77.59
2022-08-24T02:39:18.050Z,76.08
2022-08-24T02:40:18.389Z,76.38
2022-08-24T02:41:18.421Z,77.48
2022-08-24T02:42:18.790Z,76.98
2022-08-24T02:43:18.803Z,76.78
2022-08-24T02:44:18.960Z,76.98
2022-08-24T02:45:19.203Z,77.05
2022-08-24T02:46:19.345Z,76.78
2022-08-24T02:47:19.669Z,77.79
2022-08-24T02:48:19.765Z,76.78
2022-08-24T02:49:19.846Z,76.54
2022-08-24T02:50:19.991Z,75.98
2022-08-24T02:51:20.220Z,75.74
2022-08-24T02:52:20.384Z,76.45
2022-08-24T02:53:20.502Z,77.48
2022-08-24T02:54:20.671Z,76.98
2022-08-24T02:55:20.885Z,77.19
2022-08-24T02:56:21.002Z,77.19
2022-08-24T02:57:21.171Z,78.19
2022-08-24T02:58:21.421Z,77.89
2022-08-24T02:59:21.499Z,77.69
2022-08-24T03:00:21.663Z,78.09
2022-08-24T03:01:24.169Z,78.19
2022-08-24T03:02:23.256Z,77.89
2022-08-24T03:03:22.182Z,78.69
2022-08-24T03:04:22.434Z,78.89
2022-08-24T03:05:22.520Z,78.59
2022-08-24T03:06:22.673Z,77.79
2022-08-24T03:07:22.878Z,77.79
2022-08-24T03:08:23.065Z,77.79
2022-08-24T03:09:23.538Z,78.49
2022-08-24T03:10:23.352Z,78.79
2022-08-24T03:11:27.411Z,78.29
2022-08-24T03:12:23.702Z,78.09
2022-08-24T03:13:23.874Z,78.79
2022-08-24T03:14:24.115Z,78.39
2022-08-24T03:15:24.183Z,77.59
2022-08-24T03:16:24.384Z,77.79
2022-08-24T03:17:24.645Z,77.59
2022-08-24T03:18:24.913Z,79.29
2022-08-24T03:19:24.912Z,79.43
2022-08-24T03:20:25.180Z,80.63
2022-08-24T03:21:25.267Z,80.54
2022-08-24T03:22:25.440Z,79.90
2022-08-24T03:23:25.711Z,80.80
2022-08-24T03:24:25.824Z,81.20
2022-08-24T03:25:25.943Z,81.30
2022-08-24T03:26:26.146Z,80.90
2022-08-24T03:27:26.330Z,81.10
2022-08-24T03:28:26.473Z,81.50
2022-08-24T03:29:26.652Z,81.00
2022-08-24T03:30:26.970Z,80.76
2022-08-24T03:31:26.983Z,80.76
2022-08-24T03:32:27.153Z,80.86
2022-08-24T03:33:27.450Z,81.36
2022-08-24T03:34:27.504Z,79.96
2022-08-24T03:35:27.674Z,80.72
2022-08-24T03:36:27.845Z,81.02
2022-08-24T03:37:28.014Z,81.12
2022-08-24T03:38:28.309Z,81.02
2022-08-24T03:39:28.357Z,81.02
2022-08-24T03:40:28.603Z,80.88
2022-08-24T03:41:28.777Z,80.68
2022-08-24T03:42:28.882Z,80.38
2022-08-24T03:43:29.073Z,80.58
2022-08-24T03:44:29.248Z,79.58
2022-08-24T03:45:29.436Z,78.84
2022-08-24T03:46:29.584Z,79.54
2022-08-24T03:47:29.744Z,79.44
2022-08-24T03:48:29.954Z,79.54
2022-08-24T03:49:30.105Z,78.84
2022-08-24T03:50:30.356Z,79.94
2022-08-24T03:51:30.455Z,79.94
2022-08-24T03:52:33.892Z,79.94
2022-08-24T03:53:30.907Z,79.54
2022-08-24T03:54:30.955Z,79.21
2022-08-24T03:55:31.136Z,79.30
2022-08-24T03:56:31.417Z,79.41
2022-08-24T03:57:31.514Z,79.10
2022-08-24T03:58:31.720Z,79.10
2022-08-24T03:59:31.978Z,79.10
2022-08-24T04:00:32.062Z,78.91
2022-08-24T04:01:32.282Z,78.70
2022-08-24T04:02:33.110Z,78.30
2022-08-24T04:03:32.655Z,78.41
2022-08-24T04:04:32.726Z,78.47
2022-08-24T04:05:35.058Z,78.06
2022-08-24T04:06:33.087Z,77.97
2022-08-24T04:07:33.288Z,77.67
2022-08-24T04:08:33.538Z,77.97
2022-08-24T04:09:33.607Z,77.67
2022-08-24T04:10:33.775Z,77.36
2022-08-24T04:11:34.754Z,77.17
2022-08-24T04:12:34.116Z,77.33
2022-08-24T04:13:34.366Z,77.13
2022-08-24T04:14:34.436Z,76.83
2022-08-24T04:15:34.624Z,76.93
2022-08-24T04:16:34.935Z,76.53
2022-08-24T04:17:34.978Z,76.93
2022-08-24T04:18:35.187Z,76.53
2022-08-24T04:19:35.439Z,76.63
2022-08-24T04:20:35.537Z,76.43
2022-08-24T04:21:35.839Z,76.53
2022-08-24T04:22:35.889Z,76.13
2022-08-24T04:23:47.713Z,76.33
2022-08-24T04:24:37.217Z,76.19
2022-08-24T04:25:36.377Z,76.33
2022-08-24T04:26:44.822Z,76.43
2022-08-24T04:27:37.738Z,76.33
2022-08-24T04:28:36.934Z,76.13
2022-08-24T04:29:37.068Z,76.03
2022-08-24T04:30:37.341Z,76.19
2022-08-24T04:31:37.472Z,76.29
2022-08-24T04:32:37.593Z,76.19
2022-08-24T04:33:37.821Z,75.99
2022-08-24T04:34:37.937Z,75.79
2022-08-24T04:35:38.179Z,75.89
2022-08-24T04:36:38.361Z,75.79
2022-08-24T04:37:38.478Z,75.79
2022-08-24T04:38:38.704Z,75.79
2022-08-24T04:39:38.884Z,75.59
2022-08-24T04:40:39.019Z,75.49
2022-08-24T04:41:39.188Z,75.39
2022-08-24T04:42:39.460Z,75.39
2022-08-24T04:43:39.588Z,75.09
2022-08-24T04:44:39.788Z,75.39
2022-08-24T04:45:39.932Z,74.99
2022-08-24T04:46:40.171Z,74.89
2022-08-24T04:47:40.280Z,74.89
2022-08-24T04:48:40.522Z,74.79
2022-08-24T04:49:40.640Z,74.99
2022-08-24T04:50:40.849Z,75.09
2022-08-24T04:51:41.010Z,75.19
2022-08-24T04:52:41.209Z,74.99
2022-08-24T04:53:41.435Z,74.99
2022-08-24T04:54:41.539Z,74.99
2022-08-24T04:55:41.793Z,74.79
2022-08-24T04:56:41.900Z,74.66
2022-08-24T04:57:42.120Z,74.66
2022-08-24T04:58:42.328Z,74.46
2022-08-24T04:59:42.422Z,74.36
2022-08-24T05:00:42.705Z,74.26
2022-08-24T05:01:42.833Z,74.05
2022-08-24T05:02:45.041Z,74.16
2022-08-24T05:03:43.169Z,74.12
2022-08-24T05:04:43.289Z,74.02
2022-08-24T05:05:43.471Z,73.72
2022-08-24T05:06:43.660Z,73.72
2022-08-24T05:07:43.870Z,73.82
2022-08-24T05:08:44.012Z,73.92
2022-08-24T05:09:44.204Z,74.02
2022-08-24T05:10:44.427Z,73.92
2022-08-24T05:11:49.685Z,73.62
2022-08-24T05:12:45.721Z,73.28
2022-08-24T05:13:44.965Z,73.19
2022-08-24T05:14:45.063Z,73.28
2022-08-24T05:15:45.253Z,73.28
2022-08-24T05:16:45.857Z,73.19
2022-08-24T05:17:46.780Z,72.99
2022-08-24T05:18:45.752Z,72.75
2022-08-24T05:19:46.017Z,72.89
2022-08-24T05:20:46.158Z,72.69
2022-08-24T05:21:46.291Z,72.89
2022-08-24T05:22:46.491Z,72.89
2022-08-24T05:23:46.698Z,72.99
2022-08-24T05:24:46.801Z,72.55
2022-08-24T05:25:46.993Z,72.75
2022-08-24T05:26:47.257Z,72.75
2022-08-24T05:27:47.362Z,72.45
2022-08-24T05:28:47.568Z,72.45
2022-08-24T05:29:47.672Z,72.45
2022-08-24T05:30:47.822Z,72.16
2022-08-24T05:31:48.092Z,72.16
2022-08-24T05:32:48.163Z,72.16
2022-08-24T05:33:48.340Z,71.72
2022-08-24T05:34:48.606Z,71.62
2022-08-24T05:35:48.702Z,71.62
2022-08-24T05:36:48.892Z,71.32
2022-08-24T05:37:49.204Z,71.22
2022-08-24T05:38:49.255Z,71.12
2022-08-24T05:39:49.467Z,71.02
2022-08-24T05:40:49.703Z,70.99
2022-08-24T05:41:49.822Z,70.79
2022-08-24T05:42:49.974Z,70.59
2022-08-24T05:43:50.157Z,70.39
2022-08-24T05:44:50.310Z,70.26
2022-08-24T05:45:50.550Z,70.26
2022-08-24T05:46:50.743Z,70.26
2022-08-24T05:47:50.950Z,69.96
2022-08-24T05:48:52.951Z,69.66
2022-08-24T05:49:51.165Z,69.16
2022-08-24T05:50:51.376Z,69.26
2022-08-24T05:51:51.552Z,69.53
2022-08-24T05:52:51.705Z,69.23
2022-08-24T05:53:51.876Z,69.46
2022-08-24T05:54:52.084Z,69.16
2022-08-24T05:55:52.229Z,69.16
2022-08-24T05:56:52.415Z,69.16
2022-08-24T05:57:52.718Z,69.36
2022-08-24T05:58:52.753Z,69.46
2022-08-24T05:59:52.925Z,69.46
2022-08-24T06:00:53.195Z,69.36
2022-08-24T06:01:53.466Z,69.56
2022-08-24T06:02:53.721Z,69.66
2022-08-24T06:03:53.645Z,69.26
2022-08-24T06:04:53.793Z,69.16
2022-08-24T06:05:54.023Z,69.13
2022-08-24T06:06:54.151Z,69.13
2022-08-24T06:07:54.816Z,69.02
2022-08-24T06:08:54.546Z,69.02
2022-08-24T06:09:54.674Z,69.23
2022-08-24T06:10:54.948Z,69.16
2022-08-24T06:11:55.072Z,69.32
2022-08-24T06:12:55.226Z,69.32
2022-08-24T06:13:56.274Z,69.23
2022-08-24T06:14:55.589Z,69.43
2022-08-24T06:16:19.899Z,69.62
2022-08-24T06:16:56.993Z,69.13
2022-08-24T06:17:56.249Z,69.02
2022-08-24T06:18:56.291Z,68.83
2022-08-24T06:19:56.451Z,68.70
2022-08-24T06:20:57.237Z,68.40
2022-08-24T06:21:56.797Z,68.50
2022-08-24T06:22:56.967Z,68.60
2022-08-24T06:23:57.187Z,68.50
2022-08-24T06:24:58.964Z,68.46
2022-08-24T06:25:57.450Z,68.16
2022-08-24T06:26:57.665Z,68.07
2022-08-24T06:27:57.791Z,67.86
2022-08-24T06:28:57.930Z,67.74
2022-08-24T06:29:58.191Z,66.94
2022-08-24T06:30:58.368Z,67.44
2022-08-24T06:31:58.538Z,67.33
2022-08-24T06:32:58.728Z,67.11
2022-08-24T06:33:58.838Z,66.51
2022-08-24T06:34:59.028Z,66.31
2022-08-24T06:35:59.213Z,66.31
2022-08-24T06:36:59.347Z,66.41
2022-08-24T06:37:59.552Z,66.41
2022-08-24T06:38:59.805Z,66.11
2022-08-24T06:40:00.046Z,66.38
2022-08-24T06:41:00.061Z,66.18
2022-08-24T06:42:00.332Z,65.78
2022-08-24T06:43:00.440Z,65.65
2022-08-24T06:44:00.600Z,65.75
2022-08-24T06:45:00.822Z,65.16
2022-08-24T06:46:00.973Z,65.02
2022-08-24T06:47:01.172Z,64.83
2022-08-24T06:48:01.383Z,64.23
2022-08-24T06:49:01.488Z,64.23
2022-08-24T06:50:01.650Z,64.43
2022-08-24T06:51:01.867Z,64.10
2022-08-24T06:52:02.011Z,64.20
2022-08-24T06:53:02.198Z,64.30
2022-08-24T06:54:02.372Z,64.23
2022-08-24T06:55:02.569Z,64.43
2022-08-24T06:56:02.691Z,64.83
2022-08-24T06:57:02.849Z,64.92
2022-08-24T06:58:03.116Z,65.02
2022-08-24T06:59:03.220Z,65.06
2022-08-24T07:00:03.391Z,64.95
2022-08-24T07:01:03.589Z,65.45
2022-08-24T07:02:03.781Z,65.75
2022-08-24T07:03:04.090Z,66.18
2022-08-24T07:04:04.133Z,66.28
2022-08-24T07:05:04.246Z,66.48
2022-08-24T07:06:04.433Z,66.38
2022-08-24T07:07:04.645Z,66.18
2022-08-24T07:08:04.822Z,66.28
2022-08-24T07:09:04.963Z,66.18
2022-08-24T07:10:05.204Z,66.08
2022-08-24T07:11:05.377Z,66.18
2022-08-24T07:12:05.512Z,66.08
2022-08-24T07:13:05.886Z,66.31
2022-08-24T07:14:05.927Z,66.71
2022-08-24T07:15:16.194Z,66.91
2022-08-24T07:16:07.265Z,67.00
2022-08-24T07:17:06.462Z,67.30
2022-08-24T07:18:06.564Z,67.14
2022-08-24T07:19:06.716Z,67.24
2022-08-24T07:20:06.954Z,67.24
2022-08-24T07:21:07.099Z,67.44
2022-08-24T07:22:07.265Z,67.14
2022-08-24T07:23:07.502Z,67.33
2022-08-24T07:24:07.633Z,67.54
2022-08-24T07:25:07.765Z,67.54
2022-08-24T07:26:07.985Z,67.83
2022-08-24T07:27:08.198Z,67.54
2022-08-24T07:28:10.202Z,67.33
2022-08-24T07:29:20.666Z,67.14
2022-08-24T07:30:26.410Z,67.04
2022-08-24T07:31:09.871Z,67.14
2022-08-24T07:32:09.024Z,67.04
2022-08-24T07:33:09.247Z,67.33
2022-08-24T07:34:09.358Z,67.14
2022-08-24T07:35:09.537Z,66.84
2022-08-24T07:36:09.726Z,66.74
2022-08-24T07:37:09.919Z,66.64
2022-08-24T07:38:10.106Z,66.54
2022-08-24T07:39:10.320Z,66.64
2022-08-24T07:40:10.549Z,66.74
2022-08-24T07:41:36.496Z,66.44
2022-08-24T07:42:14.095Z,66.24
2022-08-24T07:43:11.008Z,66.54
2022-08-24T07:44:11.250Z,66.94
2022-08-24T07:45:11.355Z,66.64
2022-08-24T07:46:11.580Z,66.74
2022-08-24T07:47:36.631Z,66.74
2022-08-24T07:48:14.313Z,66.84
2022-08-24T07:49:29.365Z,66.74
2022-08-24T07:50:13.252Z,66.24
2022-08-24T07:51:12.399Z,66.24
2022-08-24T07:52:12.599Z,66.64
2022-08-24T07:53:16.293Z,66.64
2022-08-24T07:54:13.964Z,66.84
2022-08-24T07:55:13.146Z,66.74
2022-08-24T07:56:13.319Z,66.84
2022-08-24T07:57:13.509Z,66.71
2022-08-24T07:58:13.688Z,66.21
2022-08-24T07:59:13.829Z,66.21
2022-08-24T08:00:13.989Z,65.68
2022-08-24T08:01:14.271Z,65.68
2022-08-24T08:02:14.376Z,65.58
2022-08-24T08:03:14.556Z,65.55
2022-08-24T08:04:14.704Z,64.66
2022-08-24T08:05:14.843Z,64.56
2022-08-24T08:06:16.456Z,64.76
2022-08-24T08:07:15.188Z,64.66
2022-08-24T08:08:15.340Z,64.56
2022-08-24T08:09:15.500Z,64.43
2022-08-24T08:10:15.766Z,64.53
2022-08-24T08:11:15.871Z,64.43
2022-08-24T08:12:16.069Z,64.00
2022-08-24T08:13:16.210Z,63.90
2022-08-24T08:14:16.410Z,63.31
2022-08-24T08:15:16.583Z,63.08
2022-08-24T08:16:16.772Z,63.18
2022-08-24T08:17:16.941Z,63.18
2022-08-24T08:18:17.243Z,62.98
2022-08-24T08:19:17.292Z,62.35
2022-08-24T08:20:18.786Z,62.35
2022-08-24T08:21:17.662Z,62.15
2022-08-24T08:22:17.852Z,62.23
2022-08-24T08:23:18.029Z,61.63
2022-08-24T08:24:20.457Z,61.63
2022-08-24T08:25:18.352Z,61.33
2022-08-24T08:26:18.576Z,61.10
2022-08-24T08:27:18.717Z,61.00
2022-08-24T08:28:25.811Z,60.81
2022-08-24T08:29:20.104Z,61.00
2022-08-24T08:30:19.268Z,61.00
2022-08-24T08:31:19.455Z,61.10
2022-08-24T08:32:19.680Z,60.68
2022-08-24T08:33:19.828Z,60.88
2022-08-24T08:34:19.933Z,60.58
2022-08-24T08:35:20.109Z,60.28
2022-08-24T08:36:20.328Z,60.28
2022-08-24T08:37:20.447Z,60.68
2022-08-24T08:38:20.595Z,60.85
2022-08-24T08:39:20.879Z,60.22
2022-08-24T08:40:21.054Z,59.60
2022-08-24T08:41:25.916Z,58.29
2022-08-24T08:42:22.327Z,58.59
2022-08-24T08:43:21.474Z,57.87
2022-08-24T08:44:21.637Z,58.06
2022-08-24T08:45:21.814Z,57.34
2022-08-24T08:46:22.098Z,56.95
2022-08-24T08:47:22.185Z,57.24
2022-08-24T08:48:22.356Z,57.15
2022-08-24T08:49:22.601Z,57.15
2022-08-24T08:50:22.726Z,56.56
2022-08-24T08:51:22.896Z,56.16
2022-08-24T08:52:23.178Z,55.94
2022-08-24T08:53:23.256Z,56.63
2022-08-24T08:54:23.407Z,56.10
2022-08-24T08:55:23.596Z,55.62
2022-08-24T08:56:24.780Z,55.39
2022-08-24T08:57:24.053Z,55.66
2022-08-24T08:58:24.547Z,55.33
2022-08-24T08:59:24.278Z,54.52
2022-08-24T09:00:24.537Z,52.99
2022-08-24T09:01:24.649Z,52.08
2022-08-24T09:02:24.771Z,50.78
2022-08-24T09:03:24.939Z,50.85
2022-08-24T09:04:25.196Z,50.02
2022-08-24T09:05:25.259Z,49.14
2022-08-24T09:06:25.542Z,49.11
2022-08-24T09:07:25.651Z,48.41
2022-08-24T09:08:25.799Z,47.79
2022-08-24T09:09:26.055Z,47.77
2022-08-24T09:10:26.176Z,47.06
2022-08-24T09:11:26.319Z,46.45
2022-08-24T09:12:26.554Z,46.23
2022-08-24T09:13:26.671Z,45.14
2022-08-24T09:14:26.897Z,45.51
2022-08-24T09:15:27.038Z,44.17
2022-08-24T09:16:27.234Z,42.66
2022-08-24T09:17:27.461Z,42.04
2022-08-24T09:18:27.549Z,40.75
2022-08-24T09:19:31.708Z,42.02
2022-08-24T09:20:27.863Z,41.55
2022-08-24T09:21:28.055Z,40.97
2022-08-24T09:22:28.183Z,41.28
2022-08-24T09:23:28.364Z,41.32
2022-08-24T09:24:28.534Z,42.10
2022-08-24T09:25:28.724Z,42.14
2022-08-24T09:26:28.911Z,43.04
2022-08-24T09:27:29.074Z,42.97
2022-08-24T09:28:29.299Z,43.59
2022-08-24T09:29:29.426Z,44.30
2022-08-24T09:30:29.636Z,45.20
2022-08-24T09:31:29.903Z,45.62
2022-08-24T09:32:29.926Z,46.52
2022-08-24T09:33:30.115Z,46.52
2022-08-24T09:34:30.377Z,46.44
2022-08-24T09:35:30.466Z,47.08
2022-08-24T09:36:30.748Z,48.08
2022-08-24T09:37:30.807Z,48.47
2022-08-24T09:38:30.978Z,48.77
2022-08-24T09:39:31.166Z,48.69
2022-08-24T09:40:31.452Z,48.69
2022-08-24T09:41:31.646Z,48.86
2022-08-24T09:42:31.708Z,48.96
2022-08-24T09:43:31.888Z,48.38
2022-08-24T09:44:32.174Z,49.16
2022-08-24T09:45:32.264Z,49.07
2022-08-24T09:46:32.551Z,49.24
2022-08-24T09:47:32.598Z,48.06
2022-08-24T09:48:32.778Z,47.94
2022-08-24T09:49:33.060Z,47.74
2022-08-24T09:50:33.140Z,47.86
2022-08-24T09:51:33.340Z,47.77
2022-08-24T09:52:33.600Z,47.99
2022-08-24T09:53:33.703Z,48.57
2022-08-24T09:54:33.880Z,49.07
2022-08-24T09:55:34.180Z,48.89
2022-08-24T09:56:34.253Z,48.79
2022-08-24T09:57:59.510Z,48.79
2022-08-24T09:58:35.623Z,49.08
2022-08-24T09:59:34.801Z,49.31
2022-08-24T10:00:34.960Z,49.51
2022-08-24T10:01:35.195Z,50.21
2022-08-24T10:02:35.365Z,50.12
2022-08-24T10:03:38.529Z,50.12
2022-08-24T10:04:35.829Z,50.54
2022-08-24T10:05:36.898Z,50.34
2022-08-24T10:06:35.982Z,50.42
2022-08-24T10:07:36.182Z,50.32
2022-08-24T10:08:36.392Z,50.12
2022-08-24T10:09:36.494Z,50.12
2022-08-24T10:10:36.686Z,49.73
2022-08-24T10:11:36.943Z,49.90
2022-08-24T10:12:37.034Z,49.87
2022-08-24T10:13:37.294Z,49.19
2022-08-24T10:14:37.392Z,48.99
2022-08-24T10:15:37.604Z,49.36
2022-08-24T10:16:37.902Z,48.38
2022-08-24T10:17:37.935Z,48.38
2022-08-24T10:18:38.114Z,48.18
2022-08-24T10:19:38.379Z,48.28
2022-08-24T10:20:38.498Z,48.65
2022-08-24T10:21:38.639Z,48.74
2022-08-24T10:22:38.904Z,48.06
2022-08-24T10:23:39.023Z,48.25
2022-08-24T10:24:39.156Z,48.35
2022-08-24T10:25:39.427Z,48.74
2022-08-24T10:26:39.545Z,49.02
2022-08-24T10:27:39.702Z,47.25
2022-08-24T10:28:39.884Z,47.62
2022-08-24T10:29:40.107Z,47.13
2022-08-24T10:30:40.266Z,46.34
2022-08-24T10:31:40.420Z,46.84
2022-08-24T10:32:40.581Z,46.74
2022-08-24T10:33:40.726Z,46.74
2022-08-24T10:34:40.944Z,47.35
2022-08-24T10:35:41.098Z,48.33
2022-08-24T10:36:41.258Z,47.94
2022-08-24T10:37:42.285Z,47.84
2022-08-24T10:38:41.596Z,47.74
2022-08-24T10:39:41.800Z,48.13
2022-08-24T10:40:42.087Z,47.55
2022-08-24T10:41:42.152Z,47.25
2022-08-24T10:42:42.289Z,47.25
2022-08-24T10:43:42.555Z,47.03
2022-08-24T10:44:42.680Z,46.74
2022-08-24T10:45:42.845Z,46.64
2022-08-24T10:46:44.069Z,47.13
2022-08-24T10:47:43.182Z,46.86
2022-08-24T10:48:43.351Z,47.96
2022-08-24T10:49:43.657Z,48.28
2022-08-24T10:50:43.718Z,49.08
2022-08-24T10:51:43.892Z,48.89
2022-08-24T10:52:44.106Z,49.08
2022-08-24T10:53:44.323Z,49.08
2022-08-24T10:54:44.423Z,49.29
2022-08-24T10:55:44.622Z,48.79
2022-08-24T10:56:44.836Z,49.58
2022-08-24T10:57:44.969Z,48.79
2022-08-24T10:58:45.147Z,49.11
2022-08-24T10:59:45.338Z,49.80
2022-08-24T11:00:45.535Z,50.39
2022-08-24T11:01:45.782Z,48.72
2022-08-24T11:02:45.876Z,48.65
2022-08-24T11:03:46.000Z,48.91
2022-08-24T11:04:46.284Z,48.72
2022-08-24T11:05:46.371Z,48.23
2022-08-24T11:06:46.514Z,48.23
2022-08-24T11:07:46.753Z,48.82
2022-08-24T11:08:46.896Z,48.82
2022-08-24T11:09:47.091Z,48.82
2022-08-24T11:10:47.283Z,49.31
2022-08-24T11:11:47.487Z,49.41
2022-08-24T11:12:47.615Z,49.38
2022-08-24T11:13:47.786Z,49.29
2022-08-24T11:14:48.054Z,49.70
2022-08-24T11:15:48.153Z,49.53
2022-08-24T11:16:48.349Z,50.34
2022-08-24T11:17:48.580Z,50.14
2022-08-24T11:18:48.715Z,50.54
2022-08-24T11:19:48.879Z,51.64
2022-08-24T11:20:49.146Z,51.35
2022-08-24T11:21:49.206Z,51.97
2022-08-24T11:22:49.666Z,53.14
2022-08-24T11:23:49.648Z,51.79
2022-08-24T11:24:49.785Z,51.89
2022-08-24T11:25:49.980Z,52.38
2022-08-24T11:26:53.587Z,51.99
2022-08-24T11:27:50.287Z,51.40
2022-08-24T11:28:50.439Z,51.69
2022-08-24T11:29:50.662Z,50.81
2022-08-24T11:30:50.840Z,50.81
2022-08-24T11:31:51.027Z,51.20
2022-08-24T11:32:51.131Z,50.71
2022-08-24T11:33:52.316Z,51.10
2022-08-24T11:34:51.484Z,51.50
2022-08-24T11:35:51.641Z,51.69
2022-08-24T11:36:51.779Z,52.48
2022-08-24T11:37:52.030Z,51.69
2022-08-24T11:38:52.113Z,51.59
2022-08-24T11:39:52.346Z,52.11
2022-08-24T11:40:52.532Z,52.31
2022-08-24T11:41:52.653Z,52.28
2022-08-24T11:42:52.813Z,52.87
2022-08-24T11:43:53.031Z,51.89
2022-08-24T11:44:53.180Z,51.50
2022-08-24T11:45:53.323Z,51.69
2022-08-24T11:46:53.641Z,51.50
2022-08-24T11:47:53.677Z,51.69
2022-08-24T11:48:53.860Z,51.50
2022-08-24T11:49:54.153Z,50.81
2022-08-24T11:50:54.213Z,51.00
2022-08-24T11:51:54.481Z,51.30
2022-08-24T11:52:54.558Z,51.30
2022-08-24T11:53:54.744Z,51.30
2022-08-24T11:54:54.946Z,51.79
2022-08-24T11:55:57.480Z,51.79
2022-08-24T11:56:56.234Z,52.09
2022-08-24T11:57:55.425Z,51.50
2022-08-24T11:58:55.657Z,52.06
2022-08-24T11:59:55.785Z,51.86
2022-08-24T12:00:55.967Z,51.86
2022-08-24T12:01:56.375Z,51.28
2022-08-24T12:02:56.400Z,50.39
2022-08-24T12:03:56.528Z,50.29
2022-08-24T12:04:56.666Z,50.59
2022-08-24T12:05:56.856Z,49.70
2022-08-24T12:06:57.097Z,50.12
2022-08-24T12:07:57.207Z,50.90
2022-08-24T12:08:57.395Z,50.71
2022-08-24T12:09:57.649Z,49.90
2022-08-24T12:10:57.728Z,49.70
2022-08-24T12:11:57.910Z,50.21
2022-08-24T12:12:58.170Z,50.68
2022-08-24T12:13:58.278Z,50.09
2022-08-24T12:14:58.438Z,49.99
2022-08-24T12:15:58.694Z,50.39
2022-08-24T12:16:58.810Z,48.82
2022-08-24T12:17:59.058Z,49.50
2022-08-24T12:18:59.287Z,48.71
2022-08-24T12:19:59.356Z,49.21
2022-08-24T12:20:59.549Z,49.60
2022-08-24T12:21:59.779Z,49.70
2022-08-24T12:22:59.870Z,49.28
2022-08-24T12:24:00.142Z,49.28
2022-08-24T12:25:00.228Z,49.40
2022-08-24T12:26:00.409Z,48.91
2022-08-24T12:27:00.670Z,49.08
2022-08-24T12:28:00.872Z,49.21
2022-08-24T12:29:00.950Z,49.70
2022-08-24T12:30:01.158Z,49.90
2022-08-24T12:31:01.391Z,49.99
2022-08-24T12:32:01.484Z,49.70
2022-08-24T12:33:01.649Z,49.99
2022-08-24T12:34:01.864Z,49.90
2022-08-24T12:35:01.973Z,49.90
2022-08-24T12:36:02.139Z,49.70
2022-08-24T12:37:02.539Z,50.19
2022-08-24T12:38:02.734Z,49.80
2022-08-24T12:39:03.181Z,49.18
2022-08-24T12:40:02.892Z,49.90
2022-08-24T12:41:08.838Z,49.99
2022-08-24T12:42:04.153Z,49.60
2022-08-24T12:43:03.343Z,50.09
2022-08-24T12:44:03.553Z,50.37
2022-08-24T12:45:03.704Z,49.58
2022-08-24T12:46:03.963Z,49.18
2022-08-24T12:47:04.088Z,49.08
2022-08-24T12:48:04.358Z,49.28
2022-08-24T12:49:04.538Z,49.77
2022-08-24T12:50:04.601Z,48.79
2022-08-24T12:51:04.745Z,48.20
2022-08-24T12:52:04.935Z,48.30
2022-08-24T12:53:05.149Z,48.30
2022-08-24T12:54:06.305Z,48.30
2022-08-24T12:55:05.485Z,48.00